Time;durP1;ratioP1;P1;durP2;ratioP2;P2;SDS_P1;SDS_P2;PMS_P1;PMS_P2;Temp;Humidity;BMP_temperature;BMP_pressure;BME280_temperature;BME280_humidity;BME280_pressure;Samples;Min_cycle;Max_cycle;Signal;HPM_P1;HPM_P2
2022/09/13 00:01:46;;;;;;;13.63;10.90;;;;;;;21.32;85.11;101089.38;5095162;28;20076;-69
2022/09/13 00:04:11;;;;;;;15.82;11.15;;;;;;;21.32;85.37;101086.69;5087009;28;20031;-70
2022/09/13 00:06:37;;;;;;;16.00;10.77;;;;;;;21.31;85.47;101076.91;5087934;28;20032;-70
2022/09/13 00:09:02;;;;;;;16.25;10.50;;;;;;;21.31;85.92;101084.13;5088673;28;20028;-71
2022/09/13 00:11:30;;;;;;;16.52;11.60;;;;;;;21.29;85.87;101084.22;5088146;28;20067;-70
2022/09/13 00:13:56;;;;;;;15.13;10.95;;;;;;;21.28;86.29;101084.34;5093451;28;20051;-71
2022/09/13 00:16:23;;;;;;;15.73;11.43;;;;;;;21.26;86.25;101083.59;5108912;28;20091;-72
2022/09/13 00:18:50;;;;;;;15.60;11.18;;;;;;;21.27;86.37;101083.47;5107341;28;20107;-68
2022/09/13 00:21:17;;;;;;;19.35;11.05;;;;;;;21.27;85.90;101074.56;5108285;28;20027;-69
2022/09/13 00:23:44;;;;;;;13.70;10.63;;;;;;;21.27;86.19;101079.94;5108545;28;20386;-68
2022/09/13 00:26:16;;;;;;;18.60;11.32;;;;;;;21.29;85.13;101073.50;5108049;28;20034;-67
2022/09/13 00:28:42;;;;;;;16.60;10.63;;;;;;;21.28;85.20;101073.63;5108792;28;20344;-69
2022/09/13 00:31:08;;;;;;;14.27;10.27;;;;;;;21.26;85.43;101075.56;5108819;28;20039;-71
2022/09/13 00:33:34;;;;;;;18.23;10.77;;;;;;;21.27;85.79;101077.25;5111557;28;20118;-68
2022/09/13 00:36:04;;;;;;;14.48;11.73;;;;;;;21.25;85.42;101076.53;5112829;28;20019;-69
2022/09/13 00:38:30;;;;;;;12.75;10.10;;;;;;;21.32;84.66;101078.66;5111825;28;20058;-69
2022/09/13 00:40:55;;;;;;;15.77;11.57;;;;;;;21.36;84.36;101071.22;5111299;28;20067;-69
2022/09/13 00:43:40;;;;;;;20.98;11.57;;;;;;;21.36;84.26;101087.28;5112453;28;20020;-69
2022/09/13 00:46:06;;;;;;;12.77;10.77;;;;;;;21.52;84.75;101092.31;5100565;28;20032;-71
2022/09/13 00:48:32;;;;;;;14.10;11.55;;;;;;;21.43;84.57;101085.84;5091338;28;20072;-69
2022/09/13 00:50:58;;;;;;;15.68;11.15;;;;;;;21.46;84.29;101082.06;5091193;28;20044;-70
2022/09/13 00:53:32;;;;;;;15.80;12.70;;;;;;;21.31;84.74;101082.28;5091856;28;20433;-66
2022/09/13 00:56:02;;;;;;;11.57;10.18;;;;;;;21.26;85.34;101088.97;5091037;28;20043;-69
2022/09/13 00:58:34;;;;;;;19.05;10.90;;;;;;;21.32;85.24;101093.84;5090057;28;20035;-69
2022/09/13 01:01:01;;;;;;;14.95;12.07;;;;;;;21.17;85.65;101091.38;5091744;28;20504;-71
2022/09/13 01:03:28;;;;;;;13.13;10.75;;;;;;;21.18;85.70;101087.72;5090352;28;20024;-69
2022/09/13 01:05:58;;;;;;;12.13;10.38;;;;;;;21.11;85.76;101094.50;5111315;22;20549;-70
2022/09/13 01:08:24;;;;;;;14.23;11.27;;;;;;;21.08;86.60;101102.78;5030793;28;20040;-71
2022/09/13 01:10:51;;;;;;;15.05;10.70;;;;;;;21.09;86.16;101096.44;5028532;28;20040;-68
2022/09/13 01:13:21;;;;;;;13.38;9.80;;;;;;;21.09;85.91;101083.03;5010729;28;20026;-71
2022/09/13 01:15:47;;;;;;;15.43;11.82;;;;;;;21.11;85.66;101085.59;5010024;28;20026;-68
2022/09/13 01:18:12;;;;;;;15.70;11.32;;;;;;;21.10;85.36;101078.56;5011417;28;20026;-70
2022/09/13 01:20:43;;;;;;;12.27;10.10;;;;;;;21.16;85.43;101075.41;5011804;28;20034;-71
2022/09/13 01:23:27;;;;;;;9.98;8.27;;;;;;;21.22;84.79;101080.28;5012029;28;20120;-70
2022/09/13 01:26:35;;;;;;;11.68;8.30;;;;;;;21.30;84.33;101087.75;5028191;28;20045;-70
2022/09/13 01:29:24;;;;;;;11.10;8.75;;;;;;;21.35;83.81;101077.53;5008999;28;20042;-69
2022/09/13 01:32:04;;;;;;;9.73;8.05;;;;;;;21.42;83.31;101072.56;5029585;28;20025;-70
2022/09/13 01:34:58;;;;;;;12.73;9.85;;;;;;;21.42;83.15;101078.78;5030839;28;20037;-68
2022/09/13 01:37:57;;;;;;;14.88;9.20;;;;;;;21.43;82.90;101064.41;5027587;28;20037;-66
2022/09/13 01:40:35;;;;;;;12.75;8.48;;;;;;;21.44;82.85;101066.13;5029501;28;20181;-68
2022/09/13 01:43:28;;;;;;;10.97;8.70;;;;;;;21.45;82.80;101062.47;5029919;28;20480;-69
2022/09/13 01:46:04;;;;;;;11.45;8.43;;;;;;;21.42;82.92;101056.47;5030979;28;20303;-68
2022/09/13 01:48:32;;;;;;;13.30;9.40;;;;;;;21.33;83.16;101058.91;5030007;28;20027;-69
2022/09/13 01:51:05;;;;;;;10.73;8.75;;;;;;;21.31;83.64;101051.97;5025454;28;20377;-70
2022/09/13 01:53:51;;;;;;;10.57;8.82;;;;;;;21.27;83.45;101058.50;5024959;28;20034;-74
2022/09/13 01:56:36;;;;;;;12.93;9.40;;;;;;;21.25;84.36;101060.47;5025853;28;20022;-70
2022/09/13 01:59:11;;;;;;;13.32;10.57;;;;;;;21.18;84.79;101060.91;5009422;28;20026;-70
2022/09/13 02:01:43;;;;;;;16.95;9.80;;;;;;;21.13;84.93;101057.72;5009796;28;20037;-70
2022/09/13 02:04:13;;;;;;;13.20;10.15;;;;;;;21.07;86.03;101058.22;5017867;28;20041;-71
2022/09/13 02:07:01;;;;;;;12.73;10.02;;;;;;;21.07;85.85;101055.53;5028860;28;20843;-67
2022/09/13 02:09:30;;;;;;;12.68;8.77;;;;;;;21.07;85.81;101055.53;5029846;28;20028;-69
2022/09/13 02:12:09;;;;;;;11.75;9.68;;;;;;;21.07;86.28;101056.38;5029906;28;20071;-70
2022/09/13 02:14:39;;;;;;;11.45;9.63;;;;;;;21.04;86.50;101055.75;5028341;28;20034;-70
2022/09/13 02:17:08;;;;;;;13.27;10.65;;;;;;;21.01;86.73;101056.00;5028800;28;20448;-69
2022/09/13 02:19:47;;;;;;;;;;;;;;;20.99;87.32;101060.59;5029739;28;20403;-67
2022/09/13 02:22:14;;;;;;;13.88;9.25;;;;;;;20.99;86.76;101066.81;5030489;28;20371;-71
2022/09/13 02:24:42;;;;;;;14.00;10.02;;;;;;;20.98;87.01;101058.91;5028211;28;20107;-70
2022/09/13 02:27:11;;;;;;;13.30;9.50;;;;;;;20.96;87.23;101067.88;5029255;28;20013;-67
2022/09/13 02:29:39;;;;;;;16.65;10.18;;;;;;;20.99;86.70;101060.59;5026512;28;20303;-70
2022/09/13 02:32:09;;;;;;;14.45;8.75;;;;;;;20.97;87.22;101058.03;5027767;28;20037;-69
2022/09/13 02:34:41;;;;;;;19.75;11.40;;;;;;;20.92;87.26;101055.69;5029145;28;20671;-68
2022/09/13 02:37:08;;;;;;;14.98;10.20;;;;;;;20.91;87.34;101064.72;5028375;28;20021;-69
2022/09/13 02:39:35;;;;;;;17.75;10.88;;;;;;;20.89;87.44;101061.25;5028518;28;20064;-69
2022/09/13 02:42:11;;;;;;;14.68;9.95;;;;;;;20.90;87.50;101067.50;5019337;28;20491;-69
2022/09/13 02:44:39;;;;;;;15.63;10.63;;;;;;;20.91;87.79;101059.34;5027390;28;20036;-70
2022/09/13 02:47:29;;;;;;;11.48;9.05;;;;;;;20.95;87.03;101047.44;5026378;28;20033;-69
2022/09/13 02:50:20;;;;;;;13.43;10.02;;;;;;;20.91;87.36;101051.31;5027996;28;20112;-70
2022/09/13 02:52:51;;;;;;;17.17;10.25;;;;;;;20.91;87.52;101059.34;5024532;28;20380;-69
2022/09/13 02:55:24;;;;;;;12.63;10.57;;;;;;;20.84;88.46;101058.91;5028903;28;20052;-70
2022/09/13 02:57:54;;;;;;;15.07;10.25;;;;;;;20.88;88.19;101061.34;5028096;28;20030;-70
2022/09/13 03:00:20;;;;;;;14.60;9.63;;;;;;;20.93;87.74;101061.91;5028119;28;20049;-67
2022/09/13 03:02:46;;;;;;;13.70;10.23;;;;;;;20.90;88.30;101062.13;5027539;28;20802;-70
2022/09/13 03:05:12;;;;;;;13.32;8.95;;;;;;;20.90;88.03;101063.00;5027777;28;20395;-70
2022/09/13 03:07:37;;;;;;;12.80;10.48;;;;;;;20.88;88.76;101066.72;5028785;28;20029;-69
2022/09/13 03:10:07;;;;;;;12.60;10.23;;;;;;;20.86;88.68;101066.81;5029529;28;20360;-70
2022/09/13 03:13:04;;;;;;;11.75;9.75;;;;;;;20.86;89.02;101066.81;5025623;28;20116;-69
2022/09/13 03:15:47;;;;;;;14.00;9.80;;;;;;;20.87;89.10;101065.88;5027529;28;20032;-68
2022/09/13 03:18:36;;;;;;;11.82;10.07;;;;;;;20.84;88.71;101064.25;5027195;28;20018;-69
2022/09/13 03:21:26;;;;;;;10.80;9.00;;;;;;;20.84;89.20;101063.44;5027761;28;20030;-70
2022/09/13 03:24:15;;;;;;;15.48;10.07;;;;;;;20.81;89.09;101063.66;5029441;28;20112;-72
2022/09/13 03:26:54;;;;;;;10.73;9.10;;;;;;;20.78;89.31;101058.53;5028433;28;20036;-68
2022/09/13 03:29:56;;;;;;;11.70;9.65;;;;;;;20.85;89.23;101059.78;5027383;28;20045;-67
2022/09/13 03:32:50;;;;;;;13.38;11.13;;;;;;;20.75;89.33;101059.63;5025714;28;20029;-69
2022/09/13 03:35:30;;;;;;;18.40;11.18;;;;;;;20.75;89.98;101058.75;5028087;28;20022;-69
2022/09/13 03:38:04;;;;;;;15.65;11.07;;;;;;;20.76;89.87;101066.66;5028590;28;20056;-69
2022/09/13 03:40:50;;;;;;;17.17;11.32;;;;;;;20.74;90.16;101060.56;5028808;28;20030;-69
2022/09/13 03:43:35;;;;;;;16.75;11.80;;;;;;;20.69;90.40;101068.97;5028318;28;20115;-72
2022/09/13 03:46:29;;;;;;;17.85;13.88;;;;;;;20.65;90.87;101064.78;5027421;28;20101;-70
2022/09/13 03:48:56;;;;;;;22.60;12.85;;;;;;;20.69;90.28;101071.63;5027584;28;20420;-71
2022/09/13 03:51:21;;;;;;;18.13;12.85;;;;;;;20.67;90.65;101067.34;5026980;28;20452;-69
2022/09/13 03:53:55;;;;;;;18.85;13.48;;;;;;;20.63;91.11;101068.53;5028124;28;20120;-70
2022/09/13 03:56:20;;;;;;;21.92;12.93;;;;;;;20.63;90.42;101060.50;5026852;28;20021;-69
2022/09/13 03:58:46;;;;;;;18.10;12.90;;;;;;;20.61;91.00;101068.66;5028817;28;20037;-70
2022/09/13 04:01:12;;;;;;;16.52;12.35;;;;;;;20.60;91.16;101061.59;5027392;28;20044;-70
2022/09/13 04:03:38;;;;;;;19.50;13.40;;;;;;;20.56;91.54;101068.16;5028607;28;20021;-70
2022/09/13 04:06:04;;;;;;;15.82;11.75;;;;;;;20.59;91.01;101062.56;5019342;28;20488;-68
2022/09/13 04:08:30;;;;;;;19.58;12.68;;;;;;;20.55;91.18;101063.75;5012201;28;20169;-70
2022/09/13 04:10:56;;;;;;;17.58;13.60;;;;;;;20.54;90.94;101067.38;5013070;28;20025;-69
2022/09/13 04:13:21;;;;;;;20.30;14.70;;;;;;;20.57;90.95;101065.34;5012349;28;20030;-70
2022/09/13 04:15:47;;;;;;;16.67;12.73;;;;;;;20.56;90.79;101068.16;5016615;28;20040;-69
2022/09/13 04:18:13;;;;;;;19.92;14.38;;;;;;;20.53;90.95;101066.53;5030738;28;20104;-69
2022/09/13 04:20:38;;;;;;;24.05;16.08;;;;;;;20.55;91.31;101069.97;5031387;28;20037;-66
2022/09/13 04:23:04;;;;;;;22.60;16.50;;;;;;;20.51;91.48;101072.97;5026516;28;20021;-73
2022/09/13 04:25:29;;;;;;;23.60;15.65;;;;;;;20.43;91.69;101070.84;5030342;28;20464;-69
2022/09/13 04:27:55;;;;;;;21.17;15.77;;;;;;;20.35;92.07;101074.09;5028247;28;20021;-67
2022/09/13 04:30:22;;;;;;;23.42;16.58;;;;;;;20.31;92.44;101077.94;5031614;28;20022;-69
2022/09/13 04:32:47;;;;;;;27.13;17.77;;;;;;;20.29;92.66;101082.56;5031596;28;20361;-69
2022/09/13 04:35:15;;;;;;;30.77;18.00;;;;;;;20.32;92.67;101082.34;5030717;28;20079;-70
2022/09/13 04:37:41;;;;;;;25.67;18.00;;;;;;;20.29;93.06;101087.91;5031510;28;20029;-67
2022/09/13 04:40:07;;;;;;;27.63;19.23;;;;;;;20.26;93.54;101088.97;5031796;28;20025;-70
2022/09/13 04:42:33;;;;;;;30.38;19.90;;;;;;;20.23;93.72;101091.00;5028546;28;20037;-66
2022/09/13 04:44:58;;;;;;;29.15;18.98;;;;;;;20.24;93.20;101098.06;5031646;28;20595;-69
2022/09/13 04:47:24;;;;;;;28.05;18.17;;;;;;;20.22;93.75;101100.00;5030626;28;20021;-70
2022/09/13 04:49:49;;;;;;;27.77;18.48;;;;;;;20.22;93.54;101092.00;5032082;28;20068;-68
2022/09/13 04:52:14;;;;;;;35.38;21.85;;;;;;;20.18;94.39;101091.34;5030728;28;20033;-70
2022/09/13 04:54:39;;;;;;;35.80;20.63;;;;;;;20.17;94.87;101093.16;5031521;28;20140;-70
2022/09/13 04:57:05;;;;;;;32.78;21.67;;;;;;;20.19;94.91;101103.75;5031057;28;20364;-70
2022/09/13 04:59:30;;;;;;;30.45;21.25;;;;;;;20.18;95.25;101100.22;5031050;28;20549;-71
2022/09/13 05:01:56;;;;;;;27.25;18.35;;;;;;;20.25;95.13;101103.31;5027864;28;20087;-71
2022/09/13 05:04:21;;;;;;;29.98;18.70;;;;;;;20.34;94.93;101099.13;5030142;28;20029;-68
2022/09/13 05:06:47;;;;;;;26.80;18.98;;;;;;;20.35;95.27;101103.53;5030278;28;20597;-70
2022/09/13 05:09:13;;;;;;;25.88;17.35;;;;;;;20.39;94.92;101096.97;5030792;28;20499;-70
2022/09/13 05:11:39;;;;;;;24.15;14.52;;;;;;;20.49;94.88;101091.81;5030859;28;20390;-69
2022/09/13 05:14:05;;;;;;;22.38;14.85;;;;;;;20.51;94.91;101095.25;5020653;28;20026;-72
2022/09/13 05:16:31;;;;;;;23.10;15.18;;;;;;;20.58;94.09;101109.03;5019232;28;20037;-70
2022/09/13 05:18:57;;;;;;;20.83;13.40;;;;;;;20.56;94.37;101100.25;5019723;28;20060;-67
2022/09/13 05:21:23;;;;;;;16.75;13.43;;;;;;;20.60;94.12;101108.91;5023740;28;20066;-70
2022/09/13 05:23:53;;;;;;;17.65;12.75;;;;;;;20.57;94.35;101113.53;5031147;28;20156;-66
2022/09/13 05:26:19;;;;;;;22.17;13.63;;;;;;;20.60;94.16;101109.78;5030911;28;20033;-67
2022/09/13 05:28:44;;;;;;;18.27;13.10;;;;;;;20.61;93.90;101114.16;5031796;28;20048;-69
2022/09/13 05:31:16;;;;;;;25.83;11.90;;;;;;;20.73;93.04;101106.19;5029893;28;20026;-71
2022/09/13 05:33:42;;;;;;;19.77;11.65;;;;;;;20.71;93.41;101101.81;5030709;28;20029;-67
2022/09/13 05:36:07;;;;;;;19.38;11.95;;;;;;;20.71;92.95;101099.13;5030080;28;20017;-71
2022/09/13 05:38:33;;;;;;;18.25;12.23;;;;;;;20.77;92.78;101105.03;5022851;28;20036;-68
2022/09/13 05:41:00;;;;;;;18.70;12.52;;;;;;;20.79;93.00;101113.78;5023026;28;20017;-71
2022/09/13 05:43:28;;;;;;;20.27;11.82;;;;;;;20.81;92.98;101117.22;5018984;28;20018;-71
2022/09/13 05:46:14;;;;;;;22.13;12.45;;;;;;;20.88;92.82;101121.13;5018244;28;20057;-71
2022/09/13 05:48:39;;;;;;;17.08;11.93;;;;;;;20.95;92.50;101127.78;5019428;28;20037;-72
2022/09/13 05:51:16;;;;;;;26.75;13.10;;;;;;;21.08;92.38;101118.84;5017335;28;20037;-70
2022/09/13 05:53:44;;;;;;;20.30;12.98;;;;;;;21.19;92.07;101118.88;5025765;28;20448;-68
2022/09/13 05:56:14;;;;;;;20.90;13.10;;;;;;;21.27;91.39;101115.63;5028888;28;20029;-69
2022/09/13 05:58:41;;;;;;;18.02;10.93;;;;;;;21.34;91.15;101121.38;5028980;28;20040;-68
2022/09/13 06:01:07;;;;;;;18.92;12.52;;;;;;;21.36;91.24;101119.44;5028281;28;20060;-69
2022/09/13 06:03:33;;;;;;;15.30;12.02;;;;;;;21.40;90.84;101112.88;5029480;28;20079;-71
2022/09/13 06:05:58;;;;;;;14.10;10.73;;;;;;;21.46;90.77;101117.78;5023064;28;20045;-70
2022/09/13 06:08:25;;;;;;;16.25;13.02;;;;;;;21.46;90.22;101128.50;5010120;28;20109;-69
2022/09/13 06:11:02;;;;;;;19.75;12.38;;;;;;;21.54;90.54;101124.38;5008969;28;20437;-69
2022/09/13 06:13:28;;;;;;;14.43;10.85;;;;;;;21.57;90.31;101125.00;5009735;28;20022;-69
2022/09/13 06:15:55;;;;;;;18.08;12.77;;;;;;;21.60;89.99;101123.91;5018406;28;20017;-70
2022/09/13 06:18:20;;;;;;;15.60;11.65;;;;;;;21.70;89.67;101130.28;5024301;28;20026;-69
2022/09/13 06:20:47;;;;;;;19.30;13.15;;;;;;;21.74;89.86;101130.03;5028761;28;20032;-70
2022/09/13 06:23:13;;;;;;;19.95;13.85;;;;;;;21.70;90.11;101143.69;5029694;28;20071;-66
2022/09/13 06:25:39;;;;;;;24.33;13.80;;;;;;;21.66;90.38;101133.31;5028105;28;20065;-71
2022/09/13 06:28:04;;;;;;;16.00;12.85;;;;;;;21.89;89.12;101133.41;5028350;28;20116;-66
2022/09/13 06:30:30;;;;;;;19.90;11.80;;;;;;;21.93;89.16;101129.50;5027237;28;20030;-71
2022/09/13 06:32:56;;;;;;;14.95;11.20;;;;;;;21.95;88.99;101133.75;5027345;28;20025;-72
2022/09/13 06:35:22;;;;;;;14.65;11.00;;;;;;;21.93;88.87;101137.53;5026825;28;20109;-70
2022/09/13 06:37:47;;;;;;;17.83;11.98;;;;;;;21.86;89.37;101128.25;5029990;28;20454;-71
2022/09/13 06:40:13;;;;;;;15.90;11.05;;;;;;;21.92;89.41;101131.34;5029458;28;20025;-67
2022/09/13 06:42:38;;;;;;;10.88;9.73;;;;;;;22.00;89.63;101132.56;5023532;28;20026;-68
2022/09/13 06:45:04;;;;;;;14.40;10.60;;;;;;;22.01;89.25;101136.94;5018868;28;20391;-70
2022/09/13 06:47:29;;;;;;;13.32;9.68;;;;;;;22.02;89.13;101130.59;5026338;28;20467;-68
2022/09/13 06:49:55;;;;;;;18.88;11.27;;;;;;;21.92;89.56;101133.16;5016778;28;20103;-69
2022/09/13 06:52:20;;;;;;;24.77;12.02;;;;;;;21.82;90.49;101127.63;5022079;28;20014;-71
2022/09/13 06:54:45;;;;;;;12.15;10.52;;;;;;;22.01;89.55;101132.44;5029820;28;20049;-69
2022/09/13 06:57:11;;;;;;;16.85;10.80;;;;;;;22.08;89.54;101133.66;5028805;28;20032;-70
2022/09/13 06:59:42;;;;;;;17.08;11.30;;;;;;;22.07;89.85;101144.53;5029434;28;20033;-69
2022/09/13 07:02:08;;;;;;;19.80;11.43;;;;;;;22.15;90.41;101135.88;5012499;28;20037;-71
2022/09/13 07:04:34;;;;;;;20.30;11.07;;;;;;;22.41;89.07;101131.09;5023202;28;20507;-71
2022/09/13 07:06:59;;;;;;;17.08;10.13;;;;;;;22.63;87.97;101137.47;5008471;28;20046;-68
2022/09/13 07:09:25;;;;;;;13.40;9.05;;;;;;;22.76;87.37;101133.78;5024608;28;20028;-73
2022/09/13 07:11:52;;;;;;;14.00;10.07;;;;;;;22.67;87.18;101128.16;5028411;28;20105;-69
2022/09/13 07:14:22;;;;;;;11.52;8.93;;;;;;;22.70;87.80;101130.59;5028742;28;20027;-70
2022/09/13 07:16:48;;;;;;;9.85;7.82;;;;;;;22.81;87.68;101128.88;5029074;28;20056;-71
2022/09/13 07:19:16;;;;;;;12.38;8.02;;;;;;;23.00;87.31;101138.97;5029516;28;20053;-69
2022/09/13 07:21:42;;;;;;;12.80;6.80;;;;;;;23.09;86.77;101138.19;5028151;28;20025;-70
2022/09/13 07:24:08;;;;;;;10.48;5.93;;;;;;;23.20;85.32;101140.00;5027581;28;20482;-70
2022/09/13 07:26:33;;;;;;;7.78;4.97;;;;;;;23.01;86.01;101139.81;5028416;28;20352;-70
2022/09/13 07:29:00;;;;;;;8.25;4.32;;;;;;;23.12;85.44;101142.50;5042857;28;20025;-69
2022/09/13 07:31:32;;;;;;;8.38;3.45;;;;;;;23.03;85.22;101137.88;5026293;28;20546;-71
2022/09/13 07:34:04;;;;;;;5.70;3.22;;;;;;;22.87;84.93;101144.50;5027931;28;20037;-70
2022/09/13 07:36:32;;;;;;;8.20;2.90;;;;;;;22.77;85.05;101146.22;5028198;28;20044;-71
2022/09/13 07:38:57;;;;;;;5.25;2.80;;;;;;;22.39;86.62;101145.63;5028510;28;20079;-70
2022/09/13 07:41:24;;;;;;;4.63;2.55;;;;;;;22.66;85.53;101145.25;5026786;28;20033;-69
2022/09/13 07:43:53;;;;;;;6.15;2.67;;;;;;;22.93;84.61;101145.81;5028779;28;20065;-67
2022/09/13 07:46:22;;;;;;;5.47;2.42;;;;;;;22.88;85.18;101156.09;5026640;28;20104;-69
2022/09/13 07:48:48;;;;;;;4.82;2.50;;;;;;;23.12;83.85;101150.56;5028725;28;20030;-71
2022/09/13 07:51:16;;;;;;;6.20;2.90;;;;;;;23.15;83.35;101152.97;5027708;28;20468;-71
2022/09/13 07:53:43;;;;;;;6.85;2.80;;;;;;;23.11;82.51;101154.19;5026741;28;20079;-72
2022/09/13 07:56:20;;;;;;;7.00;2.25;;;;;;;23.19;81.65;101156.25;5027966;28;20036;-71
2022/09/13 07:58:46;;;;;;;3.20;2.08;;;;;;;23.07;82.26;101150.94;5027577;28;20395;-73
2022/09/13 08:01:19;;;;;;;8.73;2.72;;;;;;;23.00;81.88;101162.31;5016975;28;20568;-71
2022/09/13 08:03:51;;;;;;;5.20;2.53;;;;;;;23.21;81.20;101157.00;5008554;28;20430;-70
2022/09/13 08:06:16;;;;;;;4.65;2.40;;;;;;;23.34;80.46;101164.88;5014747;28;20125;-71
2022/09/13 08:08:41;;;;;;;3.40;2.13;;;;;;;23.34;80.39;101159.50;5027852;28;20120;-72
2022/09/13 08:11:07;;;;;;;3.75;2.00;;;;;;;23.40;79.46;101160.84;5025508;28;20152;-72
2022/09/13 08:13:33;;;;;;;2.30;1.90;;;;;;;23.40;79.27;101166.22;5027592;28;20132;-71
2022/09/13 08:16:05;;;;;;;4.15;2.13;;;;;;;23.33;80.15;101165.88;5026269;28;20115;-70
2022/09/13 08:18:31;;;;;;;2.13;1.75;;;;;;;23.40;80.16;101160.84;5027807;28;20022;-74
2022/09/13 08:20:57;;;;;;;4.95;1.80;;;;;;;23.80;78.53;101167.38;5026412;28;20083;-71
2022/09/13 08:23:23;;;;;;;3.90;1.60;;;;;;;23.70;78.64;101165.50;5028437;28;20087;-72
2022/09/13 08:25:49;;;;;;;2.08;1.88;;;;;;;23.80;77.27;101167.38;5027428;28;20464;-67
2022/09/13 08:28:20;;;;;;;6.00;1.73;;;;;;;23.68;77.62;101175.50;5026800;28;20033;-71
2022/09/13 08:30:45;;;;;;;3.08;1.70;;;;;;;23.94;77.10;101176.97;5009393;28;20053;-68
2022/09/13 08:33:11;;;;;;;3.00;1.70;;;;;;;24.16;76.05;101170.59;5025144;28;20735;-73
2022/09/13 08:35:37;;;;;;;7.45;1.55;;;;;;;24.19;76.22;101175.72;5026401;28;20092;-70
2022/09/13 08:38:03;;;;;;;3.55;1.55;;;;;;;24.11;75.91;101167.44;5022250;28;20030;-70
2022/09/13 08:40:38;;;;;;;3.05;1.30;;;;;;;24.17;74.99;101172.28;5027286;28;20032;-67
2022/09/13 08:43:19;;;;;;;4.30;1.10;;;;;;;24.21;75.39;101175.59;5005174;28;20065;-72
2022/09/13 08:45:59;;;;;;;2.85;1.55;;;;;;;24.05;76.71;101176.88;5022852;28;20026;-73
2022/09/13 08:48:31;;;;;;;4.72;1.70;;;;;;;24.17;75.55;101176.84;5029702;28;20124;-74
2022/09/13 08:51:03;;;;;;;2.05;1.25;;;;;;;24.33;75.54;101173.66;5025667;28;20029;-73
2022/09/13 08:53:29;;;;;;;3.75;1.45;;;;;;;24.38;75.25;101179.47;5029123;28;20037;-68
2022/09/13 08:56:46;;;;;;;3.97;1.30;;;;;;;24.41;75.69;101192.66;5030300;28;20037;-72
2022/09/13 08:59:31;;;;;;;3.13;1.70;;;;;;;24.42;76.08;101197.09;5011157;28;20125;-73
2022/09/13 09:02:19;;;;;;;5.90;1.50;;;;;;;24.49;74.79;101194.69;5029352;28;20030;-70
2022/09/13 09:05:19;;;;;;;3.85;1.30;;;;;;;24.58;73.86;101199.28;5019640;28;20063;-67
2022/09/13 09:07:56;;;;;;;1.77;1.13;;;;;;;24.67;73.76;101194.91;5031300;28;20033;-73
2022/09/13 09:10:28;;;;;;;6.38;1.33;;;;;;;24.99;73.09;101185.78;5029057;28;20456;-71
2022/09/13 09:13:25;;;;;;;3.72;1.27;;;;;;;24.99;73.26;101185.78;5012119;28;20390;-71
2022/09/13 09:15:54;;;;;;;3.08;1.05;;;;;;;25.09;72.62;101185.84;5015046;28;20380;-71
2022/09/13 09:18:19;;;;;;;;;;;;;;;25.23;73.03;101178.31;5009809;28;20030;-70
2022/09/13 09:20:46;;;;;;;3.10;1.27;;;;;;;25.44;71.34;101172.81;5018441;28;19963;-68
2022/09/13 09:23:16;;;;;;;4.80;1.20;;;;;;;25.38;70.73;101173.38;5029226;28;20506;-68
2022/09/13 09:25:42;;;;;;;3.78;1.00;;;;;;;25.27;71.67;101163.56;5028278;28;20025;-71
2022/09/13 09:28:20;;;;;;;2.38;1.15;;;;;;;24.76;72.46;101168.13;5030247;28;20156;-70
2022/09/13 09:31:03;;;;;;;4.55;1.08;;;;;;;25.32;71.07;101174.78;5029905;28;20488;-66
2022/09/13 09:33:49;;;;;;;5.35;1.13;;;;;;;25.55;70.13;101169.09;5030524;28;20033;-70
2022/09/13 09:36:23;;;;;;;6.53;1.70;;;;;;;25.11;73.10;101180.31;5029072;28;20428;-70
2022/09/13 09:38:49;;;;;;;3.25;0.98;;;;;;;25.46;70.98;101186.97;5031062;28;20041;-71
2022/09/13 09:41:28;;;;;;;4.20;1.30;;;;;;;25.24;71.54;101178.19;5030390;28;20421;-70
2022/09/13 09:43:58;;;;;;;6.28;1.08;;;;;;;24.74;72.29;101182.59;5030999;28;20033;-71
2022/09/13 09:46:27;;;;;;;9.90;1.48;;;;;;;24.94;71.87;101184.50;5029338;28;20497;-71
2022/09/13 09:48:53;;;;;;;;;;;;;;;25.08;71.04;101177.88;5029967;28;20017;-71
2022/09/13 09:51:21;;;;;;;7.00;1.20;;;;;;;25.19;70.14;101177.75;5028334;28;20023;-71
2022/09/13 09:53:48;;;;;;;4.88;1.00;;;;;;;25.33;70.50;101176.47;5029766;28;20030;-71
2022/09/13 09:56:32;;;;;;;3.75;1.50;;;;;;;25.44;69.12;101172.81;5025086;28;20116;-72
2022/09/13 09:58:57;;;;;;;3.85;1.30;;;;;;;25.35;69.59;101170.94;5009883;28;20036;-72
2022/09/13 10:01:33;;;;;;;4.00;1.42;;;;;;;24.94;69.73;101166.50;5009433;28;20339;-72
2022/09/13 10:04:11;;;;;;;5.68;1.63;;;;;;;25.45;67.86;101166.41;5027237;28;20056;-72
2022/09/13 10:06:38;;;;;;;4.83;1.13;;;;;;;25.54;67.40;101177.31;5028124;28;20057;-73
2022/09/13 10:09:20;;;;;;;5.25;0.93;;;;;;;25.38;67.77;101170.66;5030616;28;20115;-73
2022/09/13 10:11:56;;;;;;;6.07;1.55;;;;;;;25.73;67.42;101177.34;5027472;28;20037;-71
2022/09/13 10:14:29;;;;;;;5.45;1.20;;;;;;;25.67;65.82;101169.81;5029898;28;20022;-72
2022/09/13 10:17:15;;;;;;;5.22;1.65;;;;;;;25.39;66.80;101164.28;5043421;28;20514;-70
2022/09/13 10:20:00;;;;;;;3.47;1.17;;;;;;;25.46;66.71;101168.09;5029735;28;20079;-72
2022/09/13 10:22:27;;;;;;;4.13;1.33;;;;;;;25.66;66.23;101160.03;5029431;28;20033;-71
2022/09/13 10:24:52;;;;;;;3.88;1.17;;;;;;;25.71;65.75;101157.72;5020265;28;20521;-70
2022/09/13 10:27:37;;;;;;;3.95;1.20;;;;;;;25.77;64.95;101161.72;5017801;28;20034;-67
2022/09/13 10:30:05;;;;;;;1.33;0.93;;;;;;;25.66;64.50;101160.03;5018342;28;20026;-69
2022/09/13 10:32:31;;;;;;;3.47;1.23;;;;;;;25.66;64.42;101154.63;5023397;28;20033;-71
2022/09/13 10:35:06;;;;;;;4.57;1.13;;;;;;;25.23;66.30;101149.50;5027110;28;20020;-70
2022/09/13 10:37:34;;;;;;;1.25;1.00;;;;;;;25.44;64.97;101150.38;5027029;28;20124;-71
2022/09/13 10:40:07;;;;;;;2.35;1.10;;;;;;;25.90;63.70;101145.22;5027738;28;20025;-70
2022/09/13 10:42:33;;;;;;;7.45;1.20;;;;;;;25.76;64.31;101142.97;5001155;28;20436;-69
2022/09/13 10:45:02;;;;;;;2.40;1.15;;;;;;;26.15;63.89;101140.16;5013363;28;20068;-72
2022/09/13 10:47:34;;;;;;;6.05;1.27;;;;;;;26.17;63.35;101146.25;5008649;28;20018;-69
2022/09/13 10:50:18;;;;;;;4.57;1.52;;;;;;;26.12;63.09;101138.59;5011086;28;20022;-70
2022/09/13 10:52:54;;;;;;;10.00;1.35;;;;;;;25.55;64.50;101150.19;5022254;28;20111;-70
2022/09/13 10:55:23;;;;;;;2.38;1.02;;;;;;;25.60;63.83;101150.66;5028994;28;20065;-69
2022/09/13 10:57:53;;;;;;;2.75;1.40;;;;;;;25.74;63.66;101160.13;5020456;28;20022;-69
2022/09/13 11:00:29;;;;;;;4.45;1.17;;;;;;;25.97;63.39;101158.97;5019410;28;20056;-69
2022/09/13 11:03:23;;;;;;;1.98;1.20;;;;;;;25.90;62.69;101153.31;5015718;28;20022;-67
2022/09/13 11:06:08;;;;;;;5.32;1.00;;;;;;;26.03;62.28;101162.94;5022579;28;20037;-67
2022/09/13 11:09:12;;;;;;;4.95;1.20;;;;;;;26.16;62.42;101154.50;5027429;28;20342;-72
2022/09/13 11:11:58;;;;;;;4.53;1.20;;;;;;;26.53;58.97;101155.50;5026983;28;20373;-69
2022/09/13 11:14:46;;;;;;;4.07;1.05;;;;;;;26.52;59.46;101151.13;5027746;28;20384;-67
2022/09/13 11:17:37;;;;;;;4.53;1.33;;;;;;;26.89;56.83;101144.78;5026169;28;20332;-69
2022/09/13 11:20:26;;;;;;;2.55;0.90;;;;;;;26.72;57.53;101152.72;5027940;28;20187;-68
2022/09/13 11:22:54;;;;;;;;;;;;;;;26.39;58.69;101151.47;5028321;28;20029;-70
2022/09/13 11:25:42;;;;;;;6.15;1.10;;;;;;;26.28;58.70;101141.66;5024487;28;19916;-68
2022/09/13 11:28:28;;;;;;;3.65;1.00;;;;;;;25.65;59.41;101143.97;5018385;28;20510;-71
2022/09/13 11:31:20;;;;;;;6.00;1.20;;;;;;;25.61;59.44;101140.72;5015739;28;20032;-73
2022/09/13 11:33:57;;;;;;;3.65;1.30;;;;;;;25.98;59.19;101142.63;5015600;28;20037;-69
2022/09/13 11:36:44;;;;;;;3.38;0.93;;;;;;;26.05;58.74;101145.59;5018537;28;20052;-72
2022/09/13 11:39:22;;;;;;;3.40;0.90;;;;;;;25.62;59.31;101147.81;5021435;28;20206;-71